sensor_id;sensor_type;location;lat;lon;timestamp;P1;durP1;ratioP1;P2;durP2;ratioP2
62582;SDS011;48641;51.676;5.808;2022-12-07T00:01:07;5.18;;;1.55;;
62582;SDS011;48641;51.676;5.808;2022-12-07T00:03:38;4.00;;;1.60;;
62582;SDS011;48641;51.676;5.808;2022-12-07T00:06:06;4.70;;;2.10;;
62582;SDS011;48641;51.676;5.808;2022-12-07T00:08:33;5.25;;;1.80;;
62582;SDS011;48641;51.676;5.808;2022-12-07T00:11:06;5.68;;;1.80;;
62582;SDS011;48641;51.676;5.808;2022-12-07T00:13:36;4.22;;;1.75;;
62582;SDS011;48641;51.676;5.808;2022-12-07T00:16:04;5.68;;;2.00;;
62582;SDS011;48641;51.676;5.808;2022-12-07T00:18:32;5.60;;;1.80;;
62582;SDS011;48641;51.676;5.808;2022-12-07T00:21:04;5.03;;;1.80;;
62582;SDS011;48641;51.676;5.808;2022-12-07T00:23:32;5.50;;;1.95;;
62582;SDS011;48641;51.676;5.808;2022-12-07T00:26:05;5.28;;;1.80;;
62582;SDS011;48641;51.676;5.808;2022-12-07T00:28:31;5.85;;;1.67;;
62582;SDS011;48641;51.676;5.808;2022-12-07T00:31:05;4.75;;;1.85;;
62582;SDS011;48641;51.676;5.808;2022-12-07T00:33:34;5.43;;;1.83;;
62582;SDS011;48641;51.676;5.808;2022-12-07T00:36:01;4.50;;;1.55;;
62582;SDS011;48641;51.676;5.808;2022-12-07T00:38:28;3.22;;;1.50;;
62582;SDS011;48641;51.676;5.808;2022-12-07T00:40:56;2.83;;;1.38;;
62582;SDS011;48641;51.676;5.808;2022-12-07T00:43:23;4.90;;;1.73;;
62582;SDS011;48641;51.676;5.808;2022-12-07T00:45:48;5.10;;;1.70;;
62582;SDS011;48641;51.676;5.808;2022-12-07T00:48:14;4.00;;;1.58;;
62582;SDS011;48641;51.676;5.808;2022-12-07T00:50:39;5.18;;;1.70;;
62582;SDS011;48641;51.676;5.808;2022-12-07T00:53:05;3.65;;;1.42;;
62582;SDS011;48641;51.676;5.808;2022-12-07T00:55:37;3.78;;;1.60;;
62582;SDS011;48641;51.676;5.808;2022-12-07T00:58:02;3.92;;;1.73;;
62582;SDS011;48641;51.676;5.808;2022-12-07T01:00:28;3.83;;;1.67;;
62582;SDS011;48641;51.676;5.808;2022-12-07T01:02:54;4.10;;;1.50;;
62582;SDS011;48641;51.676;5.808;2022-12-07T01:05:20;6.20;;;1.58;;
62582;SDS011;48641;51.676;5.808;2022-12-07T01:07:45;4.18;;;1.63;;
62582;SDS011;48641;51.676;5.808;2022-12-07T01:10:11;3.97;;;1.75;;
62582;SDS011;48641;51.676;5.808;2022-12-07T01:12:37;5.35;;;1.60;;
62582;SDS011;48641;51.676;5.808;2022-12-07T01:15:04;4.43;;;1.63;;
62582;SDS011;48641;51.676;5.808;2022-12-07T01:17:30;5.00;;;1.90;;
62582;SDS011;48641;51.676;5.808;2022-12-07T01:19:56;3.15;;;1.35;;
62582;SDS011;48641;51.676;5.808;2022-12-07T01:22:21;4.40;;;1.70;;
62582;SDS011;48641;51.676;5.808;2022-12-07T01:24:47;3.08;;;1.30;;
62582;SDS011;48641;51.676;5.808;2022-12-07T01:27:13;3.53;;;1.60;;
62582;SDS011;48641;51.676;5.808;2022-12-07T01:29:39;4.53;;;1.35;;
62582;SDS011;48641;51.676;5.808;2022-12-07T01:32:05;5.10;;;1.70;;
62582;SDS011;48641;51.676;5.808;2022-12-07T01:34:30;4.20;;;1.55;;
62582;SDS011;48641;51.676;5.808;2022-12-07T01:36:56;3.28;;;1.40;;
62582;SDS011;48641;51.676;5.808;2022-12-07T01:39:22;3.85;;;1.63;;
62582;SDS011;48641;51.676;5.808;2022-12-07T01:41:48;4.35;;;1.60;;
62582;SDS011;48641;51.676;5.808;2022-12-07T01:52:41;3.10;;;1.38;;
62582;SDS011;48641;51.676;5.808;2022-12-07T01:55:03;4.32;;;1.80;;
62582;SDS011;48641;51.676;5.808;2022-12-07T01:57:32;2.92;;;1.40;;
62582;SDS011;48641;51.676;5.808;2022-12-07T02:00:00;4.32;;;1.60;;
62582;SDS011;48641;51.676;5.808;2022-12-07T02:02:27;4.10;;;1.55;;
62582;SDS011;48641;51.676;5.808;2022-12-07T02:04:57;3.85;;;1.58;;
62582;SDS011;48641;51.676;5.808;2022-12-07T02:07:25;4.18;;;1.77;;
62582;SDS011;48641;51.676;5.808;2022-12-07T02:09:52;5.10;;;1.70;;
62582;SDS011;48641;51.676;5.808;2022-12-07T02:12:19;4.65;;;1.50;;
62582;SDS011;48641;51.676;5.808;2022-12-07T02:14:45;3.90;;;1.50;;
62582;SDS011;48641;51.676;5.808;2022-12-07T02:17:21;4.03;;;1.60;;
62582;SDS011;48641;51.676;5.808;2022-12-07T02:23:23;3.55;;;1.50;;
62582;SDS011;48641;51.676;5.808;2022-12-07T02:27:00;3.40;;;1.40;;
62582;SDS011;48641;51.676;5.808;2022-12-07T02:31:49;4.32;;;1.40;;
62582;SDS011;48641;51.676;5.808;2022-12-07T02:34:31;3.30;;;1.50;;
62582;SDS011;48641;51.676;5.808;2022-12-07T02:37:10;3.10;;;1.42;;
62582;SDS011;48641;51.676;5.808;2022-12-07T02:39:54;4.60;;;1.55;;
62582;SDS011;48641;51.676;5.808;2022-12-07T02:42:45;3.45;;;1.40;;
62582;SDS011;48641;51.676;5.808;2022-12-07T02:45:15;4.63;;;1.80;;
62582;SDS011;48641;51.676;5.808;2022-12-07T02:47:45;4.20;;;1.45;;
62582;SDS011;48641;51.676;5.808;2022-12-07T02:50:13;4.05;;;1.50;;
62582;SDS011;48641;51.676;5.808;2022-12-07T02:52:39;3.47;;;1.30;;
62582;SDS011;48641;51.676;5.808;2022-12-07T02:55:05;4.15;;;1.50;;
62582;SDS011;48641;51.676;5.808;2022-12-07T02:57:40;3.72;;;1.52;;
62582;SDS011;48641;51.676;5.808;2022-12-07T03:00:17;3.47;;;1.40;;
62582;SDS011;48641;51.676;5.808;2022-12-07T03:03:00;3.65;;;1.15;;
62582;SDS011;48641;51.676;5.808;2022-12-07T03:05:38;3.63;;;1.38;;
62582;SDS011;48641;51.676;5.808;2022-12-07T03:11:06;3.85;;;1.52;;
62582;SDS011;48641;51.676;5.808;2022-12-07T03:16:17;3.92;;;1.60;;
62582;SDS011;48641;51.676;5.808;2022-12-07T03:21:50;4.18;;;1.52;;
62582;SDS011;48641;51.676;5.808;2022-12-07T03:24:31;3.15;;;1.27;;
62582;SDS011;48641;51.676;5.808;2022-12-07T03:29:46;4.30;;;1.38;;
62582;SDS011;48641;51.676;5.808;2022-12-07T03:32:20;2.80;;;1.25;;
62582;SDS011;48641;51.676;5.808;2022-12-07T03:34:55;3.65;;;1.33;;
62582;SDS011;48641;51.676;5.808;2022-12-07T03:40:47;3.78;;;1.40;;
62582;SDS011;48641;51.676;5.808;2022-12-07T03:43:28;3.65;;;1.33;;
62582;SDS011;48641;51.676;5.808;2022-12-07T03:48:35;3.38;;;1.40;;
62582;SDS011;48641;51.676;5.808;2022-12-07T03:51:11;2.90;;;1.20;;
62582;SDS011;48641;51.676;5.808;2022-12-07T03:53:44;2.08;;;1.10;;
62582;SDS011;48641;51.676;5.808;2022-12-07T03:56:15;3.00;;;1.45;;
62582;SDS011;48641;51.676;5.808;2022-12-07T03:58:41;3.67;;;1.23;;
62582;SDS011;48641;51.676;5.808;2022-12-07T04:01:07;2.85;;;1.20;;
62582;SDS011;48641;51.676;5.808;2022-12-07T04:03:33;4.25;;;1.30;;
62582;SDS011;48641;51.676;5.808;2022-12-07T04:05:58;2.80;;;1.13;;
62582;SDS011;48641;51.676;5.808;2022-12-07T04:08:24;3.30;;;0.98;;
62582;SDS011;48641;51.676;5.808;2022-12-07T04:10:50;3.05;;;1.13;;
62582;SDS011;48641;51.676;5.808;2022-12-07T04:13:16;3.92;;;1.40;;
62582;SDS011;48641;51.676;5.808;2022-12-07T04:15:41;3.75;;;1.40;;
62582;SDS011;48641;51.676;5.808;2022-12-07T04:18:07;2.50;;;1.13;;
62582;SDS011;48641;51.676;5.808;2022-12-07T04:20:32;3.10;;;1.30;;
62582;SDS011;48641;51.676;5.808;2022-12-07T04:22:58;2.17;;;1.10;;
62582;SDS011;48641;51.676;5.808;2022-12-07T04:25:24;3.22;;;1.27;;
62582;SDS011;48641;51.676;5.808;2022-12-07T04:27:49;3.33;;;1.27;;
62582;SDS011;48641;51.676;5.808;2022-12-07T04:30:15;2.15;;;1.00;;
62582;SDS011;48641;51.676;5.808;2022-12-07T04:32:40;2.83;;;1.05;;
62582;SDS011;48641;51.676;5.808;2022-12-07T04:35:06;2.95;;;1.05;;
62582;SDS011;48641;51.676;5.808;2022-12-07T04:37:32;2.65;;;1.30;;
62582;SDS011;48641;51.676;5.808;2022-12-07T04:39:57;3.78;;;1.30;;
62582;SDS011;48641;51.676;5.808;2022-12-07T04:42:23;2.78;;;1.00;;
62582;SDS011;48641;51.676;5.808;2022-12-07T04:44:49;2.85;;;1.13;;
62582;SDS011;48641;51.676;5.808;2022-12-07T04:47:15;2.35;;;1.00;;
62582;SDS011;48641;51.676;5.808;2022-12-07T04:49:41;3.38;;;1.27;;
62582;SDS011;48641;51.676;5.808;2022-12-07T04:52:07;2.38;;;1.00;;
62582;SDS011;48641;51.676;5.808;2022-12-07T04:54:32;3.20;;;1.23;;
62582;SDS011;48641;51.676;5.808;2022-12-07T04:56:58;1.90;;;1.20;;
62582;SDS011;48641;51.676;5.808;2022-12-07T04:59:23;2.78;;;1.10;;
62582;SDS011;48641;51.676;5.808;2022-12-07T05:01:49;3.05;;;1.10;;
62582;SDS011;48641;51.676;5.808;2022-12-07T05:04:18;3.10;;;1.17;;
62582;SDS011;48641;51.676;5.808;2022-12-07T05:06:43;2.90;;;1.10;;
62582;SDS011;48641;51.676;5.808;2022-12-07T05:09:09;2.10;;;0.98;;
62582;SDS011;48641;51.676;5.808;2022-12-07T05:11:35;3.08;;;1.10;;
62582;SDS011;48641;51.676;5.808;2022-12-07T05:14:06;2.90;;;1.00;;
62582;SDS011;48641;51.676;5.808;2022-12-07T05:16:40;2.72;;;1.10;;
62582;SDS011;48641;51.676;5.808;2022-12-07T05:19:06;2.83;;;1.10;;
62582;SDS011;48641;51.676;5.808;2022-12-07T05:21:32;3.83;;;1.00;;
62582;SDS011;48641;51.676;5.808;2022-12-07T05:23:58;3.75;;;1.23;;
62582;SDS011;48641;51.676;5.808;2022-12-07T05:26:24;2.53;;;1.00;;
62582;SDS011;48641;51.676;5.808;2022-12-07T05:28:53;2.97;;;1.10;;
62582;SDS011;48641;51.676;5.808;2022-12-07T05:31:20;2.10;;;0.80;;
62582;SDS011;48641;51.676;5.808;2022-12-07T05:33:46;2.90;;;1.05;;
62582;SDS011;48641;51.676;5.808;2022-12-07T05:36:12;2.13;;;1.10;;
62582;SDS011;48641;51.676;5.808;2022-12-07T05:38:38;3.05;;;1.10;;
62582;SDS011;48641;51.676;5.808;2022-12-07T05:41:04;2.67;;;1.00;;
62582;SDS011;48641;51.676;5.808;2022-12-07T05:43:31;2.65;;;0.90;;
62582;SDS011;48641;51.676;5.808;2022-12-07T05:45:57;2.92;;;0.90;;
62582;SDS011;48641;51.676;5.808;2022-12-07T05:48:23;2.33;;;0.90;;
62582;SDS011;48641;51.676;5.808;2022-12-07T05:50:50;2.65;;;1.10;;
62582;SDS011;48641;51.676;5.808;2022-12-07T05:53:16;2.95;;;1.10;;
62582;SDS011;48641;51.676;5.808;2022-12-07T05:55:42;2.58;;;1.00;;
62582;SDS011;48641;51.676;5.808;2022-12-07T05:58:08;2.10;;;0.80;;
62582;SDS011;48641;51.676;5.808;2022-12-07T06:00:54;2.65;;;1.00;;
62582;SDS011;48641;51.676;5.808;2022-12-07T06:03:20;2.47;;;0.90;;
62582;SDS011;48641;51.676;5.808;2022-12-07T06:05:46;3.45;;;0.98;;
62582;SDS011;48641;51.676;5.808;2022-12-07T06:08:11;2.83;;;1.15;;
62582;SDS011;48641;51.676;5.808;2022-12-07T06:10:37;2.20;;;0.95;;
62582;SDS011;48641;51.676;5.808;2022-12-07T06:13:02;2.10;;;0.85;;
62582;SDS011;48641;51.676;5.808;2022-12-07T06:15:28;1.45;;;0.70;;
62582;SDS011;48641;51.676;5.808;2022-12-07T06:17:53;2.15;;;0.75;;
62582;SDS011;48641;51.676;5.808;2022-12-07T06:20:19;2.78;;;0.90;;
62582;SDS011;48641;51.676;5.808;2022-12-07T06:22:44;2.85;;;1.20;;
62582;SDS011;48641;51.676;5.808;2022-12-07T06:25:10;3.53;;;1.20;;
62582;SDS011;48641;51.676;5.808;2022-12-07T06:27:36;3.95;;;1.08;;
62582;SDS011;48641;51.676;5.808;2022-12-07T06:30:01;3.35;;;1.10;;
62582;SDS011;48641;51.676;5.808;2022-12-07T06:32:31;4.97;;;1.30;;
62582;SDS011;48641;51.676;5.808;2022-12-07T06:34:58;5.32;;;1.40;;
62582;SDS011;48641;51.676;5.808;2022-12-07T06:37:24;3.25;;;1.33;;
62582;SDS011;48641;51.676;5.808;2022-12-07T06:39:50;4.05;;;1.50;;
62582;SDS011;48641;51.676;5.808;2022-12-07T06:42:15;4.40;;;1.25;;
62582;SDS011;48641;51.676;5.808;2022-12-07T06:44:41;5.15;;;1.50;;
62582;SDS011;48641;51.676;5.808;2022-12-07T06:47:06;6.07;;;1.50;;
62582;SDS011;48641;51.676;5.808;2022-12-07T06:49:32;5.72;;;1.60;;
62582;SDS011;48641;51.676;5.808;2022-12-07T06:51:58;4.03;;;1.40;;
62582;SDS011;48641;51.676;5.808;2022-12-07T06:54:24;6.03;;;1.70;;
62582;SDS011;48641;51.676;5.808;2022-12-07T06:56:50;4.20;;;1.60;;
62582;SDS011;48641;51.676;5.808;2022-12-07T06:59:15;4.03;;;1.60;;
62582;SDS011;48641;51.676;5.808;2022-12-07T07:01:41;3.53;;;1.40;;
62582;SDS011;48641;51.676;5.808;2022-12-07T07:04:07;4.97;;;1.73;;
62582;SDS011;48641;51.676;5.808;2022-12-07T07:06:32;5.75;;;1.45;;
62582;SDS011;48641;51.676;5.808;2022-12-07T07:08:58;4.70;;;1.50;;
62582;SDS011;48641;51.676;5.808;2022-12-07T07:11:24;4.22;;;1.38;;
62582;SDS011;48641;51.676;5.808;2022-12-07T07:13:49;3.63;;;1.40;;
62582;SDS011;48641;51.676;5.808;2022-12-07T07:16:15;4.70;;;1.55;;
62582;SDS011;48641;51.676;5.808;2022-12-07T07:18:40;4.07;;;1.40;;
62582;SDS011;48641;51.676;5.808;2022-12-07T07:21:06;3.30;;;1.30;;
62582;SDS011;48641;51.676;5.808;2022-12-07T07:23:32;4.10;;;1.50;;
62582;SDS011;48641;51.676;5.808;2022-12-07T07:25:57;3.42;;;1.13;;
62582;SDS011;48641;51.676;5.808;2022-12-07T07:28:23;3.22;;;1.30;;
62582;SDS011;48641;51.676;5.808;2022-12-07T07:30:48;3.42;;;1.23;;
62582;SDS011;48641;51.676;5.808;2022-12-07T07:33:14;4.05;;;1.42;;
62582;SDS011;48641;51.676;5.808;2022-12-07T07:35:40;3.38;;;1.23;;
62582;SDS011;48641;51.676;5.808;2022-12-07T07:38:06;3.80;;;1.38;;
62582;SDS011;48641;51.676;5.808;2022-12-07T07:40:32;5.32;;;1.45;;
62582;SDS011;48641;51.676;5.808;2022-12-07T07:42:58;3.90;;;1.48;;
62582;SDS011;48641;51.676;5.808;2022-12-07T07:45:25;4.55;;;1.42;;
62582;SDS011;48641;51.676;5.808;2022-12-07T07:47:51;3.53;;;1.33;;
62582;SDS011;48641;51.676;5.808;2022-12-07T07:50:17;3.63;;;1.27;;
62582;SDS011;48641;51.676;5.808;2022-12-07T07:52:43;4.68;;;1.40;;
62582;SDS011;48641;51.676;5.808;2022-12-07T07:55:10;4.03;;;1.38;;
62582;SDS011;48641;51.676;5.808;2022-12-07T07:57:36;3.83;;;1.25;;
62582;SDS011;48641;51.676;5.808;2022-12-07T08:00:10;4.97;;;1.60;;
62582;SDS011;48641;51.676;5.808;2022-12-07T08:02:37;3.45;;;1.42;;
62582;SDS011;48641;51.676;5.808;2022-12-07T08:05:03;4.63;;;1.52;;
62582;SDS011;48641;51.676;5.808;2022-12-07T08:07:29;4.65;;;1.38;;
62582;SDS011;48641;51.676;5.808;2022-12-07T08:09:54;15.20;;;7.53;;
62582;SDS011;48641;51.676;5.808;2022-12-07T08:12:20;9.57;;;4.72;;
62582;SDS011;48641;51.676;5.808;2022-12-07T08:14:45;8.35;;;3.78;;
62582;SDS011;48641;51.676;5.808;2022-12-07T08:17:11;7.40;;;3.15;;
62582;SDS011;48641;51.676;5.808;2022-12-07T08:19:37;7.55;;;3.00;;
62582;SDS011;48641;51.676;5.808;2022-12-07T08:22:03;7.95;;;3.10;;
62582;SDS011;48641;51.676;5.808;2022-12-07T08:24:28;6.88;;;2.97;;
62582;SDS011;48641;51.676;5.808;2022-12-07T08:26:54;9.45;;;3.28;;
62582;SDS011;48641;51.676;5.808;2022-12-07T08:29:19;6.45;;;2.78;;
62582;SDS011;48641;51.676;5.808;2022-12-07T08:31:45;5.60;;;2.30;;
62582;SDS011;48641;51.676;5.808;2022-12-07T08:34:12;6.57;;;3.00;;
62582;SDS011;48641;51.676;5.808;2022-12-07T08:36:38;7.70;;;3.00;;
62582;SDS011;48641;51.676;5.808;2022-12-07T08:39:03;8.13;;;2.95;;
62582;SDS011;48641;51.676;5.808;2022-12-07T08:41:29;6.53;;;2.55;;
62582;SDS011;48641;51.676;5.808;2022-12-07T08:43:55;7.88;;;3.00;;
62582;SDS011;48641;51.676;5.808;2022-12-07T08:46:25;5.88;;;2.80;;
62582;SDS011;48641;51.676;5.808;2022-12-07T08:49:01;5.85;;;2.67;;
62582;SDS011;48641;51.676;5.808;2022-12-07T08:51:39;5.72;;;2.40;;
62582;SDS011;48641;51.676;5.808;2022-12-07T08:54:07;7.00;;;2.65;;
62582;SDS011;48641;51.676;5.808;2022-12-07T08:56:35;6.05;;;2.45;;
62582;SDS011;48641;51.676;5.808;2022-12-07T08:59:01;8.00;;;2.92;;
62582;SDS011;48641;51.676;5.808;2022-12-07T09:01:28;6.38;;;2.50;;
62582;SDS011;48641;51.676;5.808;2022-12-07T09:03:53;6.78;;;2.42;;
62582;SDS011;48641;51.676;5.808;2022-12-07T09:06:19;5.82;;;2.70;;
62582;SDS011;48641;51.676;5.808;2022-12-07T09:08:46;6.20;;;2.63;;
62582;SDS011;48641;51.676;5.808;2022-12-07T09:11:15;5.93;;;2.35;;
62582;SDS011;48641;51.676;5.808;2022-12-07T09:13:40;6.20;;;2.15;;
62582;SDS011;48641;51.676;5.808;2022-12-07T09:16:06;5.95;;;2.33;;
62582;SDS011;48641;51.676;5.808;2022-12-07T09:18:31;6.72;;;2.50;;
62582;SDS011;48641;51.676;5.808;2022-12-07T09:20:57;6.25;;;2.30;;
62582;SDS011;48641;51.676;5.808;2022-12-07T09:23:23;5.63;;;2.35;;
62582;SDS011;48641;51.676;5.808;2022-12-07T09:25:49;6.43;;;2.33;;
62582;SDS011;48641;51.676;5.808;2022-12-07T09:28:14;5.35;;;2.22;;
62582;SDS011;48641;51.676;5.808;2022-12-07T09:30:45;6.32;;;2.65;;
62582;SDS011;48641;51.676;5.808;2022-12-07T09:33:11;6.95;;;2.50;;
62582;SDS011;48641;51.676;5.808;2022-12-07T09:35:37;5.50;;;1.73;;
62582;SDS011;48641;51.676;5.808;2022-12-07T09:38:03;6.05;;;2.30;;
62582;SDS011;48641;51.676;5.808;2022-12-07T09:40:28;5.60;;;2.20;;
62582;SDS011;48641;51.676;5.808;2022-12-07T09:42:54;6.35;;;2.20;;
62582;SDS011;48641;51.676;5.808;2022-12-07T09:45:22;5.07;;;2.10;;
62582;SDS011;48641;51.676;5.808;2022-12-07T09:47:50;4.90;;;2.08;;
62582;SDS011;48641;51.676;5.808;2022-12-07T09:50:18;6.57;;;2.33;;
62582;SDS011;48641;51.676;5.808;2022-12-07T09:52:47;7.45;;;2.25;;
62582;SDS011;48641;51.676;5.808;2022-12-07T09:55:16;7.72;;;2.58;;
62582;SDS011;48641;51.676;5.808;2022-12-07T09:57:48;5.75;;;2.10;;
62582;SDS011;48641;51.676;5.808;2022-12-07T10:00:17;6.35;;;2.47;;
62582;SDS011;48641;51.676;5.808;2022-12-07T10:02:47;5.78;;;2.20;;
62582;SDS011;48641;51.676;5.808;2022-12-07T10:05:29;6.15;;;2.20;;
62582;SDS011;48641;51.676;5.808;2022-12-07T10:07:59;6.80;;;2.40;;
62582;SDS011;48641;51.676;5.808;2022-12-07T10:10:26;6.68;;;2.38;;
62582;SDS011;48641;51.676;5.808;2022-12-07T10:23:34;8.35;;;2.25;;
62582;SDS011;48641;51.676;5.808;2022-12-07T10:29:01;10.07;;;2.70;;
62582;SDS011;48641;51.676;5.808;2022-12-07T10:31:41;4.97;;;2.17;;
62582;SDS011;48641;51.676;5.808;2022-12-07T10:34:49;7.63;;;2.28;;
62582;SDS011;48641;51.676;5.808;2022-12-07T10:37:07;5.85;;;2.20;;
62582;SDS011;48641;51.676;5.808;2022-12-07T10:39:51;6.70;;;2.33;;
62582;SDS011;48641;51.676;5.808;2022-12-07T10:42:28;7.32;;;2.40;;
62582;SDS011;48641;51.676;5.808;2022-12-07T10:45:14;6.80;;;2.20;;
62582;SDS011;48641;51.676;5.808;2022-12-07T10:47:57;5.90;;;2.00;;
62582;SDS011;48641;51.676;5.808;2022-12-07T10:50:52;5.35;;;2.30;;
62582;SDS011;48641;51.676;5.808;2022-12-07T10:53:36;4.97;;;2.25;;
62582;SDS011;48641;51.676;5.808;2022-12-07T11:07:12;5.30;;;1.92;;
62582;SDS011;48641;51.676;5.808;2022-12-07T11:09:28;5.60;;;1.98;;
62582;SDS011;48641;51.676;5.808;2022-12-07T11:12:29;5.18;;;2.33;;
62582;SDS011;48641;51.676;5.808;2022-12-07T11:25:46;4.93;;;1.98;;
62582;SDS011;48641;51.676;5.808;2022-12-07T11:33:53;6.95;;;2.15;;
62582;SDS011;48641;51.676;5.808;2022-12-07T11:38:54;6.70;;;2.00;;
62582;SDS011;48641;51.676;5.808;2022-12-07T11:41:26;4.93;;;1.92;;
62582;SDS011;48641;51.676;5.808;2022-12-07T11:44:00;4.90;;;1.88;;
62582;SDS011;48641;51.676;5.808;2022-12-07T11:46:39;4.78;;;1.85;;
62582;SDS011;48641;51.676;5.808;2022-12-07T11:51:58;4.90;;;1.77;;
62582;SDS011;48641;51.676;5.808;2022-12-07T11:54:28;4.63;;;1.73;;
62582;SDS011;48641;51.676;5.808;2022-12-07T11:57:02;4.22;;;1.77;;
62582;SDS011;48641;51.676;5.808;2022-12-07T11:59:35;4.38;;;1.60;;
62582;SDS011;48641;51.676;5.808;2022-12-07T12:02:11;5.03;;;1.80;;
62582;SDS011;48641;51.676;5.808;2022-12-07T12:04:49;4.30;;;1.60;;
62582;SDS011;48641;51.676;5.808;2022-12-07T12:07:24;3.67;;;1.70;;
62582;SDS011;48641;51.676;5.808;2022-12-07T12:10:03;6.10;;;1.90;;
62582;SDS011;48641;51.676;5.808;2022-12-07T12:15:29;4.00;;;1.65;;
62582;SDS011;48641;51.676;5.808;2022-12-07T12:21:23;5.18;;;1.65;;
62582;SDS011;48641;51.676;5.808;2022-12-07T12:24:10;4.53;;;1.55;;
62582;SDS011;48641;51.676;5.808;2022-12-07T12:26:40;4.40;;;1.60;;
62582;SDS011;48641;51.676;5.808;2022-12-07T12:29:20;4.57;;;1.65;;
62582;SDS011;48641;51.676;5.808;2022-12-07T12:34:41;3.60;;;1.48;;
62582;SDS011;48641;51.676;5.808;2022-12-07T12:37:38;4.45;;;1.58;;
62582;SDS011;48641;51.676;5.808;2022-12-07T12:42:49;5.13;;;1.60;;
62582;SDS011;48641;51.676;5.808;2022-12-07T12:45:21;3.95;;;1.45;;
62582;SDS011;48641;51.676;5.808;2022-12-07T12:50:32;3.13;;;1.53;;
62582;SDS011;48641;51.676;5.808;2022-12-07T13:00:49;5.05;;;1.52;;
62582;SDS011;48641;51.676;5.808;2022-12-07T13:03:53;5.03;;;1.90;;
62582;SDS011;48641;51.676;5.808;2022-12-07T13:08:56;4.45;;;1.50;;
62582;SDS011;48641;51.676;5.808;2022-12-07T13:11:35;3.95;;;1.58;;
62582;SDS011;48641;51.676;5.808;2022-12-07T13:17:12;4.43;;;1.50;;
62582;SDS011;48641;51.676;5.808;2022-12-07T13:27:39;3.53;;;1.63;;
62582;SDS011;48641;51.676;5.808;2022-12-07T13:30:24;4.05;;;1.35;;
62582;SDS011;48641;51.676;5.808;2022-12-07T13:32:54;3.65;;;1.38;;
62582;SDS011;48641;51.676;5.808;2022-12-07T13:35:29;4.00;;;1.42;;
62582;SDS011;48641;51.676;5.808;2022-12-07T13:38:02;3.35;;;1.58;;
62582;SDS011;48641;51.676;5.808;2022-12-07T13:40:30;3.50;;;1.25;;
62582;SDS011;48641;51.676;5.808;2022-12-07T13:42:59;4.80;;;1.73;;
62582;SDS011;48641;51.676;5.808;2022-12-07T13:45:32;5.50;;;1.67;;
62582;SDS011;48641;51.676;5.808;2022-12-07T13:48:32;7.72;;;1.73;;
62582;SDS011;48641;51.676;5.808;2022-12-07T13:51:02;4.47;;;1.60;;
62582;SDS011;48641;51.676;5.808;2022-12-07T13:53:28;5.32;;;1.70;;
62582;SDS011;48641;51.676;5.808;2022-12-07T13:55:57;6.18;;;1.83;;
62582;SDS011;48641;51.676;5.808;2022-12-07T13:58:25;5.03;;;1.67;;
62582;SDS011;48641;51.676;5.808;2022-12-07T14:00:55;5.10;;;1.58;;
62582;SDS011;48641;51.676;5.808;2022-12-07T14:03:31;4.43;;;1.50;;
62582;SDS011;48641;51.676;5.808;2022-12-07T14:08:39;4.28;;;1.60;;
62582;SDS011;48641;51.676;5.808;2022-12-07T14:11:05;5.50;;;1.60;;
62582;SDS011;48641;51.676;5.808;2022-12-07T14:13:34;5.55;;;1.48;;
62582;SDS011;48641;51.676;5.808;2022-12-07T14:16:05;4.70;;;1.60;;
62582;SDS011;48641;51.676;5.808;2022-12-07T14:18:50;2.97;;;1.33;;
62582;SDS011;48641;51.676;5.808;2022-12-07T14:21:16;6.82;;;1.48;;
62582;SDS011;48641;51.676;5.808;2022-12-07T14:23:44;5.75;;;1.58;;
62582;SDS011;48641;51.676;5.808;2022-12-07T14:26:11;4.35;;;1.50;;
62582;SDS011;48641;51.676;5.808;2022-12-07T14:28:43;4.88;;;1.60;;
62582;SDS011;48641;51.676;5.808;2022-12-07T14:31:22;3.88;;;1.50;;
62582;SDS011;48641;51.676;5.808;2022-12-07T14:33:49;3.45;;;1.20;;
62582;SDS011;48641;51.676;5.808;2022-12-07T14:36:15;5.10;;;1.55;;
62582;SDS011;48641;51.676;5.808;2022-12-07T14:38:41;4.25;;;1.50;;
62582;SDS011;48641;51.676;5.808;2022-12-07T14:41:14;3.80;;;1.40;;
62582;SDS011;48641;51.676;5.808;2022-12-07T14:44:01;5.88;;;1.90;;
62582;SDS011;48641;51.676;5.808;2022-12-07T14:46:33;5.45;;;1.52;;
62582;SDS011;48641;51.676;5.808;2022-12-07T14:48:58;5.82;;;1.83;;
62582;SDS011;48641;51.676;5.808;2022-12-07T14:51:24;5.13;;;1.50;;
62582;SDS011;48641;51.676;5.808;2022-12-07T14:53:50;6.07;;;1.70;;
62582;SDS011;48641;51.676;5.808;2022-12-07T14:56:17;6.38;;;1.77;;
62582;SDS011;48641;51.676;5.808;2022-12-07T14:58:42;5.47;;;1.70;;
62582;SDS011;48641;51.676;5.808;2022-12-07T15:01:08;3.95;;;1.35;;
62582;SDS011;48641;51.676;5.808;2022-12-07T15:03:33;5.68;;;1.77;;
62582;SDS011;48641;51.676;5.808;2022-12-07T15:06:00;5.18;;;1.85;;
62582;SDS011;48641;51.676;5.808;2022-12-07T15:08:26;4.40;;;1.50;;
62582;SDS011;48641;51.676;5.808;2022-12-07T15:10:51;4.53;;;1.30;;
62582;SDS011;48641;51.676;5.808;2022-12-07T15:13:17;4.13;;;1.60;;
62582;SDS011;48641;51.676;5.808;2022-12-07T15:16:02;3.83;;;1.60;;
62582;SDS011;48641;51.676;5.808;2022-12-07T15:18:27;4.50;;;1.33;;
62582;SDS011;48641;51.676;5.808;2022-12-07T15:20:53;4.60;;;1.40;;
62582;SDS011;48641;51.676;5.808;2022-12-07T15:23:18;3.92;;;1.40;;
62582;SDS011;48641;51.676;5.808;2022-12-07T15:25:45;4.57;;;1.33;;
62582;SDS011;48641;51.676;5.808;2022-12-07T15:28:12;3.92;;;1.40;;
62582;SDS011;48641;51.676;5.808;2022-12-07T15:30:39;3.63;;;1.33;;
62582;SDS011;48641;51.676;5.808;2022-12-07T15:33:07;4.38;;;1.33;;
62582;SDS011;48641;51.676;5.808;2022-12-07T15:35:37;6.05;;;1.52;;
62582;SDS011;48641;51.676;5.808;2022-12-07T15:38:10;4.25;;;1.25;;
62582;SDS011;48641;51.676;5.808;2022-12-07T15:40:36;3.42;;;1.42;;
62582;SDS011;48641;51.676;5.808;2022-12-07T15:43:02;2.08;;;1.20;;
62582;SDS011;48641;51.676;5.808;2022-12-07T15:45:27;3.72;;;1.35;;
62582;SDS011;48641;51.676;5.808;2022-12-07T15:47:53;2.90;;;1.10;;
62582;SDS011;48641;51.676;5.808;2022-12-07T15:50:20;3.90;;;1.23;;
62582;SDS011;48641;51.676;5.808;2022-12-07T15:52:46;4.25;;;1.40;;
62582;SDS011;48641;51.676;5.808;2022-12-07T15:55:12;3.05;;;1.20;;
62582;SDS011;48641;51.676;5.808;2022-12-07T15:57:38;5.10;;;1.35;;
62582;SDS011;48641;51.676;5.808;2022-12-07T16:00:04;3.03;;;1.20;;
62582;SDS011;48641;51.676;5.808;2022-12-07T16:02:32;3.33;;;1.35;;
62582;SDS011;48641;51.676;5.808;2022-12-07T16:04:57;3.85;;;1.40;;
62582;SDS011;48641;51.676;5.808;2022-12-07T16:07:23;4.90;;;1.20;;
62582;SDS011;48641;51.676;5.808;2022-12-07T16:09:49;3.83;;;1.38;;
62582;SDS011;48641;51.676;5.808;2022-12-07T16:12:15;4.97;;;1.40;;
62582;SDS011;48641;51.676;5.808;2022-12-07T16:14:41;3.45;;;1.17;;
62582;SDS011;48641;51.676;5.808;2022-12-07T16:17:07;3.03;;;1.20;;
62582;SDS011;48641;51.676;5.808;2022-12-07T16:19:33;3.75;;;1.20;;
62582;SDS011;48641;51.676;5.808;2022-12-07T16:22:00;3.78;;;1.27;;
62582;SDS011;48641;51.676;5.808;2022-12-07T16:24:26;4.15;;;1.33;;
62582;SDS011;48641;51.676;5.808;2022-12-07T16:26:52;3.63;;;1.50;;
62582;SDS011;48641;51.676;5.808;2022-12-07T16:29:19;7.38;;;2.50;;
62582;SDS011;48641;51.676;5.808;2022-12-07T16:31:45;5.97;;;2.30;;
62582;SDS011;48641;51.676;5.808;2022-12-07T16:34:11;5.22;;;1.50;;
62582;SDS011;48641;51.676;5.808;2022-12-07T16:36:37;4.75;;;1.70;;
62582;SDS011;48641;51.676;5.808;2022-12-07T16:39:03;4.35;;;1.52;;
62582;SDS011;48641;51.676;5.808;2022-12-07T16:41:29;4.28;;;2.00;;
62582;SDS011;48641;51.676;5.808;2022-12-07T16:43:55;4.70;;;1.55;;
62582;SDS011;48641;51.676;5.808;2022-12-07T16:46:21;4.15;;;1.50;;
62582;SDS011;48641;51.676;5.808;2022-12-07T16:48:46;4.53;;;1.80;;
62582;SDS011;48641;51.676;5.808;2022-12-07T16:51:13;3.78;;;1.52;;
62582;SDS011;48641;51.676;5.808;2022-12-07T16:53:40;4.00;;;1.52;;
62582;SDS011;48641;51.676;5.808;2022-12-07T16:56:13;6.35;;;1.92;;